Time;durP1;ratioP1;P1;durP2;ratioP2;P2;SDS_P1;SDS_P2;PMS_P1;PMS_P2;Temp;Humidity;BMP_temperature;BMP_pressure;BME280_temperature;BME280_humidity;BME280_pressure;Samples;Min_cycle;Max_cycle;Signal;HPM_P1;HPM_P2
2023/01/23 00:02:24;;;;;;;68.07;24.02;;;;;;;;;;5066068;28;20028;-59
2023/01/23 00:04:50;;;;;;;60.63;23.38;;;;;;;;;;5065372;28;20036;-59
2023/01/23 00:07:15;;;;;;;65.93;23.00;;;;;;;;;;5063034;28;20024;-59
2023/01/23 00:09:40;;;;;;;62.05;23.77;;;;;;;;;;5065416;28;20129;-59
2023/01/23 00:12:05;;;;;;;59.28;23.77;;;;;;;;;;5060532;28;20071;-59
2023/01/23 00:14:31;;;;;;;61.53;24.58;;;;;;;;;;5066405;28;20024;-60
2023/01/23 00:16:56;;;;;;;53.83;21.77;;;;;;;;;;5063805;28;20157;-59
2023/01/23 00:19:21;;;;;;;59.15;22.33;;;;;;;;;;5064135;28;20039;-59
2023/01/23 00:21:46;;;;;;;56.25;22.42;;;;;;;;;;5062951;28;20028;-59
2023/01/23 00:24:12;;;;;;;56.03;21.02;;;;;;;;;;5065933;28;20394;-59
2023/01/23 00:26:37;;;;;;;57.58;22.67;;;;;;;;;;5064778;28;20474;-59
2023/01/23 00:29:02;;;;;;;53.55;20.40;;;;;;;;;;5064951;28;20028;-59
2023/01/23 00:31:29;;;;;;;51.10;20.10;;;;;;;;;;5063573;28;20060;-59
2023/01/23 00:34:01;;;;;;;47.65;19.00;;;;;;;;;;5060931;28;20111;-59
2023/01/23 00:36:27;;;;;;;52.25;19.27;;;;;;;;;;5061433;28;20047;-59
2023/01/23 00:38:52;;;;;;;49.65;19.33;;;;;;;;;;5059641;28;20028;-59
2023/01/23 00:41:18;;;;;;;51.95;19.73;;;;;;;;;;5062931;28;20040;-59
2023/01/23 00:43:45;;;;;;;49.17;19.13;;;;;;;;;;5058850;28;20020;-59
2023/01/23 00:46:10;;;;;;;46.08;18.08;;;;;;;;;;5064435;28;20383;-59
2023/01/23 00:48:36;;;;;;;47.30;19.98;;;;;;;;;;5064280;28;20501;-59
2023/01/23 00:51:01;;;;;;;53.70;20.33;;;;;;;;;;5063760;28;20107;-59
2023/01/23 00:53:26;;;;;;;55.47;20.23;;;;;;;;;;5065940;28;20372;-59
2023/01/23 00:55:52;;;;;;;55.30;19.58;;;;;;;;;;5064744;28;20474;-60
2023/01/23 00:58:17;;;;;;;56.70;20.85;;;;;;;;;;5064734;28;20025;-59
2023/01/23 01:00:42;;;;;;;49.58;19.63;;;;;;;;;;5064292;28;20017;-59
2023/01/23 01:03:08;;;;;;;56.30;20.20;;;;;;;;;;5065085;28;20067;-59
2023/01/23 01:05:33;;;;;;;55.20;20.33;;;;;;;;;;5063261;28;20127;-59
2023/01/23 01:07:58;;;;;;;50.67;19.45;;;;;;;;;;5065423;28;20315;-59
2023/01/23 01:10:28;;;;;;;49.53;19.63;;;;;;;;;;5064797;28;20127;-59
2023/01/23 01:12:53;;;;;;;45.55;18.95;;;;;;;;;;5065215;28;20159;-59
2023/01/23 01:15:19;;;;;;;55.15;20.30;;;;;;;;;;5066446;28;20100;-59
2023/01/23 01:17:44;;;;;;;59.97;21.73;;;;;;;;;;5069012;28;20047;-59
2023/01/23 01:20:09;;;;;;;51.97;19.52;;;;;;;;;;5083118;28;20029;-59
2023/01/23 01:22:35;;;;;;;57.95;20.52;;;;;;;;;;5084423;28;20035;-59
2023/01/23 01:25:03;;;;;;;45.95;17.10;;;;;;;;;;5067688;28;20085;-59
2023/01/23 01:27:28;;;;;;;51.95;18.92;;;;;;;;;;5068061;28;20038;-59
2023/01/23 01:29:53;;;;;;;56.97;19.83;;;;;;;;;;5066668;28;20485;-59
2023/01/23 01:32:19;;;;;;;52.13;20.33;;;;;;;;;;5068780;28;20036;-60
2023/01/23 01:34:44;;;;;;;47.20;17.40;;;;;;;;;;5067277;28;20098;-59
2023/01/23 01:37:09;;;;;;;53.42;19.52;;;;;;;;;;5067226;28;20074;-59
2023/01/23 01:39:34;;;;;;;41.00;17.00;;;;;;;;;;5068460;28;20029;-59
2023/01/23 01:41:59;;;;;;;43.17;18.15;;;;;;;;;;5063184;28;20123;-59
2023/01/23 01:44:25;;;;;;;55.90;19.38;;;;;;;;;;5066598;28;20028;-59
2023/01/23 01:46:50;;;;;;;50.60;17.50;;;;;;;;;;5066411;28;20130;-59
2023/01/23 01:49:17;;;;;;;47.75;18.77;;;;;;;;;;5067985;28;20262;-59
2023/01/23 01:51:44;;;;;;;46.50;18.85;;;;;;;;;;5068507;28;20472;-59
2023/01/23 01:54:16;;;;;;;50.80;18.45;;;;;;;;;;5067114;28;20622;-59
2023/01/23 01:56:45;;;;;;;48.60;17.48;;;;;;;;;;5068503;28;20116;-59
2023/01/23 01:59:10;;;;;;;51.80;19.95;;;;;;;;;;5068809;28;20123;-59
2023/01/23 02:01:35;;;;;;;50.60;20.50;;;;;;;;;;5066648;28;20101;-59
2023/01/23 02:04:01;;;;;;;51.58;19.00;;;;;;;;;;5065887;28;20119;-59
2023/01/23 02:06:26;;;;;;;52.90;19.27;;;;;;;;;;5064994;28;20047;-59
2023/01/23 02:08:54;;;;;;;45.78;17.95;;;;;;;;;;5067166;28;20056;-59
2023/01/23 02:11:19;;;;;;;53.20;20.08;;;;;;;;;;5065701;28;20025;-59
2023/01/23 02:13:44;;;;;;;43.38;18.67;;;;;;;;;;5079998;28;20387;-62
2023/01/23 02:16:11;;;;;;;50.58;19.35;;;;;;;;;;5066790;28;20027;-59
2023/01/23 02:18:37;;;;;;;48.08;19.00;;;;;;;;;;5066094;28;20033;-60
2023/01/23 02:21:04;;;;;;;38.67;15.75;;;;;;;;;;5067502;28;20370;-59
2023/01/23 02:23:36;;;;;;;47.78;17.92;;;;;;;;;;5067653;28;20025;-59
2023/01/23 02:26:05;;;;;;;53.95;18.25;;;;;;;;;;5059373;28;20032;-59
2023/01/23 02:28:36;;;;;;;45.40;16.35;;;;;;;;;;5064417;28;20036;-59
2023/01/23 02:31:02;;;;;;;42.28;16.17;;;;;;;;;;5067598;28;20032;-60
2023/01/23 02:33:27;;;;;;;48.28;16.80;;;;;;;;;;5066255;28;20039;-59
2023/01/23 02:35:53;;;;;;;41.53;17.05;;;;;;;;;;5067218;28;20029;-59
2023/01/23 02:38:19;;;;;;;45.40;16.77;;;;;;;;;;5066190;28;20032;-59
2023/01/23 02:40:44;;;;;;;41.40;17.55;;;;;;;;;;5066093;28;20311;-59
2023/01/23 02:43:11;;;;;;;47.25;16.85;;;;;;;;;;5061041;28;20078;-58
2023/01/23 02:45:37;;;;;;;46.42;17.48;;;;;;;;;;5065697;28;20103;-59
2023/01/23 02:48:04;;;;;;;48.75;18.40;;;;;;;;;;5064992;28;20383;-59
2023/01/23 02:50:30;;;;;;;45.70;15.65;;;;;;;;;;5066245;28;20037;-59
2023/01/23 02:52:56;;;;;;;50.58;18.83;;;;;;;;;;5067079;28;20247;-61
2023/01/23 02:55:22;;;;;;;41.28;16.75;;;;;;;;;;5079144;28;20100;-59
2023/01/23 02:57:47;;;;;;;46.70;17.63;;;;;;;;;;5066691;28;20558;-59
2023/01/23 03:00:15;;;;;;;44.80;18.52;;;;;;;;;;5061924;28;20043;-59
2023/01/23 03:02:41;;;;;;;47.03;17.20;;;;;;;;;;5067747;28;20032;-58
2023/01/23 03:05:06;;;;;;;54.03;20.15;;;;;;;;;;5066080;28;20547;-59
2023/01/23 03:07:32;;;;;;;49.95;19.55;;;;;;;;;;5081580;28;20040;-60
2023/01/23 03:09:57;;;;;;;53.47;20.08;;;;;;;;;;5066709;28;20178;-58
2023/01/23 03:12:22;;;;;;;56.83;21.83;;;;;;;;;;5066095;28;20044;-58
2023/01/23 03:14:52;;;;;;;54.53;20.25;;;;;;;;;;5066705;28;20020;-58
2023/01/23 03:17:18;;;;;;;55.15;20.45;;;;;;;;;;5075643;28;20027;-59
2023/01/23 03:19:43;;;;;;;49.97;20.13;;;;;;;;;;5065486;28;20519;-59
2023/01/23 03:22:08;;;;;;;49.50;19.38;;;;;;;;;;5066381;28;20031;-59
2023/01/23 03:24:33;;;;;;;61.50;21.95;;;;;;;;;;5066765;28;20067;-59
2023/01/23 03:26:59;;;;;;;53.38;21.15;;;;;;;;;;5061632;28;20024;-59
2023/01/23 03:32:08;;;;;;;56.28;19.40;;;;;;;;;;5066286;28;20047;-59
2023/01/23 03:34:33;;;;;;;52.47;19.85;;;;;;;;;;5063428;28;20024;-59
2023/01/23 03:37:00;;;;;;;52.15;19.38;;;;;;;;;;5063414;28;20025;-59
2023/01/23 03:42:09;;;;;;;49.17;18.23;;;;;;;;;;5062217;28;20382;-59
2023/01/23 03:44:34;;;;;;;52.38;20.38;;;;;;;;;;5065856;28;20032;-59
2023/01/23 03:46:59;;;;;;;50.22;19.00;;;;;;;;;;5064778;28;20029;-59
2023/01/23 03:49:25;;;;;;;50.30;19.40;;;;;;;;;;5065558;28;20578;-59
2023/01/23 03:51:50;;;;;;;52.15;19.55;;;;;;;;;;5065507;28;20295;-59
2023/01/23 03:54:15;;;;;;;51.25;19.42;;;;;;;;;;5062346;28;20031;-59
2023/01/23 03:56:41;;;;;;;51.25;19.25;;;;;;;;;;5065451;28;20103;-59
2023/01/23 03:59:06;;;;;;;59.35;19.58;;;;;;;;;;5064944;28;20073;-59
2023/01/23 04:01:31;;;;;;;50.05;17.67;;;;;;;;;;5065517;28;20028;-59
2023/01/23 04:03:57;;;;;;;51.10;19.17;;;;;;;;;;5061855;28;20027;-59
2023/01/23 04:06:22;;;;;;;54.47;20.85;;;;;;;;;;5065885;28;20757;-58
2023/01/23 04:08:47;;;;;;;50.63;18.40;;;;;;;;;;5059243;28;20044;-58
2023/01/23 04:11:12;;;;;;;51.35;19.67;;;;;;;;;;5064852;28;20486;-58
2023/01/23 04:13:38;;;;;;;59.38;21.08;;;;;;;;;;5064876;28;20107;-58
2023/01/23 04:16:03;;;;;;;52.38;19.92;;;;;;;;;;5065373;28;20506;-58
2023/01/23 04:18:28;;;;;;;49.28;19.45;;;;;;;;;;5063720;28;20032;-60
2023/01/23 04:20:54;;;;;;;60.10;19.85;;;;;;;;;;5065234;28;20092;-60
2023/01/23 04:23:19;;;;;;;55.25;19.60;;;;;;;;;;5066067;28;20025;-58
2023/01/23 04:25:44;;;;;;;52.63;18.55;;;;;;;;;;5064750;28;20016;-59
2023/01/23 04:28:09;;;;;;;49.90;19.05;;;;;;;;;;5061567;28;20037;-60
2023/01/23 04:30:35;;;;;;;47.72;18.15;;;;;;;;;;5057155;28;20474;-60
2023/01/23 04:33:00;;;;;;;49.67;19.00;;;;;;;;;;5064666;28;20398;-60
2023/01/23 04:35:25;;;;;;;58.53;19.98;;;;;;;;;;5062461;28;20021;-60
2023/01/23 04:37:50;;;;;;;53.35;20.38;;;;;;;;;;5063019;28;20622;-60
2023/01/23 04:40:16;;;;;;;52.72;18.33;;;;;;;;;;5064852;28;20796;-61
2023/01/23 04:42:41;;;;;;;51.20;18.48;;;;;;;;;;5060286;28;20043;-60
2023/01/23 04:45:07;;;;;;;58.17;19.58;;;;;;;;;;5064367;28;20028;-60
2023/01/23 04:47:32;;;;;;;49.47;19.27;;;;;;;;;;5064641;28;20116;-57
2023/01/23 04:49:58;;;;;;;53.10;18.23;;;;;;;;;;5062670;28;20493;-60
2023/01/23 04:52:23;;;;;;;51.67;19.42;;;;;;;;;;5064129;28;20043;-58
2023/01/23 04:54:48;;;;;;;50.92;18.40;;;;;;;;;;5065776;28;20035;-58
2023/01/23 04:57:13;;;;;;;48.08;18.63;;;;;;;;;;5064962;28;20032;-60
2023/01/23 04:59:39;;;;;;;51.13;18.08;;;;;;;;;;5062695;28;20181;-60
2023/01/23 05:02:04;;;;;;;50.03;18.92;;;;;;;;;;5064282;28;20085;-60
2023/01/23 05:04:29;;;;;;;53.58;19.50;;;;;;;;;;5064783;28;20033;-60
2023/01/23 05:06:54;;;;;;;53.53;19.40;;;;;;;;;;5062681;28;20025;-60
2023/01/23 05:09:20;;;;;;;78.22;26.50;;;;;;;;;;5063777;28;20161;-60
2023/01/23 05:11:45;;;;;;;240.15;67.57;;;;;;;;;;5061985;28;20459;-60
2023/01/23 05:14:11;;;;;;;146.43;43.08;;;;;;;;;;5063407;28;20032;-60
2023/01/23 05:16:36;;;;;;;87.55;30.52;;;;;;;;;;5065001;28;20028;-59
2023/01/23 05:19:01;;;;;;;51.88;20.80;;;;;;;;;;5063736;28;20039;-59
2023/01/23 05:21:26;;;;;;;65.30;21.38;;;;;;;;;;5065038;28;20055;-59
2023/01/23 05:23:52;;;;;;;51.97;21.50;;;;;;;;;;5062970;28;20037;-59
2023/01/23 05:26:17;;;;;;;58.45;21.88;;;;;;;;;;5058859;28;20034;-59
2023/01/23 05:28:42;;;;;;;56.13;21.10;;;;;;;;;;5064141;28;20040;-59
2023/01/23 05:31:07;;;;;;;67.22;21.40;;;;;;;;;;5064664;28;20436;-59
2023/01/23 05:33:33;;;;;;;59.53;22.20;;;;;;;;;;5062297;28;20059;-59
2023/01/23 05:35:59;;;;;;;49.15;21.00;;;;;;;;;;5064381;28;20020;-59
2023/01/23 05:38:24;;;;;;;55.08;18.98;;;;;;;;;;5062014;28;20157;-59
2023/01/23 05:40:49;;;;;;;61.35;22.50;;;;;;;;;;5064581;28;20028;-59
2023/01/23 05:43:15;;;;;;;50.40;20.35;;;;;;;;;;5061653;28;20024;-59
2023/01/23 05:45:40;;;;;;;57.67;21.60;;;;;;;;;;5058652;28;20554;-59
2023/01/23 05:48:05;;;;;;;56.17;20.42;;;;;;;;;;5065191;28;20039;-59
2023/01/23 05:50:30;;;;;;;63.35;20.05;;;;;;;;;;5060981;28;20032;-59
2023/01/23 05:52:56;;;;;;;55.90;19.10;;;;;;;;;;5080490;28;20283;-59
2023/01/23 05:55:21;;;;;;;50.13;18.58;;;;;;;;;;5064547;28;20107;-59
2023/01/23 05:57:46;;;;;;;55.42;19.77;;;;;;;;;;5063124;28;20474;-59
2023/01/23 06:00:12;;;;;;;58.17;18.88;;;;;;;;;;5062207;28;20017;-59
2023/01/23 06:02:37;;;;;;;47.15;17.83;;;;;;;;;;5053637;28;20514;-59
2023/01/23 06:05:02;;;;;;;51.10;18.55;;;;;;;;;;5065123;28;20510;-59
2023/01/23 06:07:27;;;;;;;46.63;17.60;;;;;;;;;;5067044;28;20565;-59
2023/01/23 06:09:53;;;;;;;52.30;18.80;;;;;;;;;;5068045;28;20032;-59
2023/01/23 06:12:18;;;;;;;51.67;20.45;;;;;;;;;;5066493;28;20432;-59
2023/01/23 06:14:43;;;;;;;53.17;19.95;;;;;;;;;;5067235;28;20381;-59
2023/01/23 06:17:09;;;;;;;32.70;12.95;;;;;;;;;;5067105;28;20429;-59
2023/01/23 06:19:35;;;;;;;30.90;12.52;;;;;;;;;;5060764;28;20039;-59
2023/01/23 06:22:00;;;;;;;31.10;11.60;;;;;;;;;;5066686;28;20028;-59
2023/01/23 06:24:25;;;;;;;31.48;11.85;;;;;;;;;;5066798;28;20391;-59
2023/01/23 06:26:50;;;;;;;21.95;9.93;;;;;;;;;;5067628;28;20149;-59
2023/01/23 06:29:16;;;;;;;28.73;12.35;;;;;;;;;;5066323;28;20119;-59
2023/01/23 06:31:41;;;;;;;26.83;11.52;;;;;;;;;;5066538;28;20463;-59
2023/01/23 06:34:06;;;;;;;38.83;14.82;;;;;;;;;;5066188;28;20116;-59
2023/01/23 06:36:32;;;;;;;43.95;19.52;;;;;;;;;;5066100;28;20055;-58
2023/01/23 06:38:58;;;;;;;29.27;12.88;;;;;;;;;;5064860;28;20474;-59
2023/01/23 06:41:23;;;;;;;29.08;11.80;;;;;;;;;;5061065;28;20025;-59
2023/01/23 06:43:48;;;;;;;24.08;12.00;;;;;;;;;;5060901;28;20540;-58
2023/01/23 06:46:14;;;;;;;24.73;12.45;;;;;;;;;;5063798;28;20360;-59
2023/01/23 06:48:39;;;;;;;26.80;12.27;;;;;;;;;;5064373;28;20035;-59
2023/01/23 06:51:04;;;;;;;25.35;12.70;;;;;;;;;;5065841;28;20031;-59
2023/01/23 06:53:30;;;;;;;25.58;12.38;;;;;;;;;;5065246;28;20033;-59
2023/01/23 06:55:59;;;;;;;21.88;11.13;;;;;;;;;;5066162;28;20012;-59
2023/01/23 06:58:24;;;;;;;33.25;13.88;;;;;;;;;;5060912;28;20028;-59
2023/01/23 07:00:49;;;;;;;28.98;12.77;;;;;;;;;;5067165;28;20031;-59
2023/01/23 07:03:14;;;;;;;33.78;12.82;;;;;;;;;;5066786;28;20459;-59
2023/01/23 07:05:42;;;;;;;28.83;12.95;;;;;;;;;;5065817;28;20452;-59
2023/01/23 07:08:07;;;;;;;30.17;11.38;;;;;;;;;;5066227;28;20063;-59
2023/01/23 07:10:33;;;;;;;29.63;12.55;;;;;;;;;;5046956;28;20472;-59
2023/01/23 07:12:58;;;;;;;30.15;12.13;;;;;;;;;;5065604;28;20041;-60
2023/01/23 07:15:23;;;;;;;32.42;13.02;;;;;;;;;;5063575;28;20144;-58
2023/01/23 07:17:48;;;;;;;32.92;13.30;;;;;;;;;;5063476;28;20089;-61
2023/01/23 07:20:14;;;;;;;33.75;14.18;;;;;;;;;;5065422;28;20017;-58
2023/01/23 07:22:39;;;;;;;35.65;14.57;;;;;;;;;;5065135;28;20028;-58
2023/01/23 07:25:05;;;;;;;50.95;14.68;;;;;;;;;;5061991;28;20028;-58
2023/01/23 07:27:31;;;;;;;35.35;14.20;;;;;;;;;;5065977;28;20023;-58
2023/01/23 07:29:57;;;;;;;57.25;18.38;;;;;;;;;;5064584;28;20048;-59
2023/01/23 07:32:22;;;;;;;75.00;25.27;;;;;;;;;;5065933;28;20086;-59
2023/01/23 07:34:47;;;;;;;68.03;21.13;;;;;;;;;;5062919;28;20395;-58
2023/01/23 07:37:13;;;;;;;76.22;23.65;;;;;;;;;;5065692;28;20814;-58
2023/01/23 07:39:38;;;;;;;161.93;37.55;;;;;;;;;;5065790;28;20024;-58
2023/01/23 07:42:03;;;;;;;73.68;23.98;;;;;;;;;;5062485;28;20024;-58
2023/01/23 07:44:28;;;;;;;66.65;20.05;;;;;;;;;;5060012;28;20059;-58
2023/01/23 07:46:53;;;;;;;36.72;15.68;;;;;;;;;;5064738;28;20099;-59
2023/01/23 07:49:19;;;;;;;30.30;14.38;;;;;;;;;;5064621;28;20028;-59
2023/01/23 07:51:44;;;;;;;36.75;14.88;;;;;;;;;;5064440;28;20283;-58
2023/01/23 07:54:09;;;;;;;33.88;14.95;;;;;;;;;;5063498;28;20487;-58
2023/01/23 07:56:34;;;;;;;35.67;14.15;;;;;;;;;;5065494;28;20082;-58
2023/01/23 07:58:59;;;;;;;31.10;14.15;;;;;;;;;;5065190;28;20062;-58
2023/01/23 08:01:25;;;;;;;37.42;14.45;;;;;;;;;;5066568;28;20071;-59
2023/01/23 08:03:51;;;;;;;30.38;12.77;;;;;;;;;;5065541;28;20025;-59
2023/01/23 08:06:16;;;;;;;28.98;14.15;;;;;;;;;;5065501;28;20016;-59
2023/01/23 08:08:41;;;;;;;37.70;16.67;;;;;;;;;;5065401;28;20491;-59
2023/01/23 08:11:09;;;;;;;30.75;13.82;;;;;;;;;;5064781;28;20268;-59
2023/01/23 08:13:35;;;;;;;27.30;12.02;;;;;;;;;;5061296;28;20099;-59
2023/01/23 08:16:00;;;;;;;31.08;12.52;;;;;;;;;;5065657;28;20465;-59
2023/01/23 08:18:25;;;;;;;30.10;13.60;;;;;;;;;;5061739;28;20433;-59
2023/01/23 08:20:51;;;;;;;26.42;11.48;;;;;;;;;;5065256;28;20305;-59
2023/01/23 08:23:16;;;;;;;29.90;12.57;;;;;;;;;;5065596;28;20024;-59
2023/01/23 08:25:42;;;;;;;32.15;14.70;;;;;;;;;;5065726;28;20383;-60
2023/01/23 08:28:07;;;;;;;30.63;14.43;;;;;;;;;;5065451;28;20123;-59
2023/01/23 08:30:32;;;;;;;25.48;12.02;;;;;;;;;;5065589;28;20032;-59
2023/01/23 08:32:58;;;;;;;29.17;12.18;;;;;;;;;;5063747;28;20046;-59
2023/01/23 08:35:24;;;;;;;36.35;14.07;;;;;;;;;;5064873;28;20032;-59
2023/01/23 08:37:49;;;;;;;43.42;16.52;;;;;;;;;;5066057;28;20409;-59
2023/01/23 08:40:14;;;;;;;38.63;14.70;;;;;;;;;;5065565;28;20086;-59
2023/01/23 08:42:39;;;;;;;28.25;12.05;;;;;;;;;;5060551;28;20401;-59
2023/01/23 08:45:05;;;;;;;26.50;13.23;;;;;;;;;;5061573;28;20218;-59
2023/01/23 08:47:35;;;;;;;24.95;10.75;;;;;;;;;;5060678;28;20399;-59
2023/01/23 08:50:00;;;;;;;21.10;10.03;;;;;;;;;;5065129;28;20526;-59
2023/01/23 08:52:25;;;;;;;26.60;11.13;;;;;;;;;;5065157;28;20296;-58
2023/01/23 08:54:51;;;;;;;23.52;12.35;;;;;;;;;;5065296;28;20017;-59
2023/01/23 08:57:16;;;;;;;22.20;10.82;;;;;;;;;;5064934;28;20423;-59
2023/01/23 08:59:43;;;;;;;21.35;9.38;;;;;;;;;;5065284;28;20020;-59
2023/01/23 09:02:10;;;;;;;23.70;10.68;;;;;;;;;;5064969;28;20071;-59
2023/01/23 09:04:35;;;;;;;19.63;8.95;;;;;;;;;;5063903;28;20077;-59
2023/01/23 09:07:00;;;;;;;23.08;10.93;;;;;;;;;;5065029;28;20546;-59
2023/01/23 09:09:27;;;;;;;17.95;8.95;;;;;;;;;;5061925;28;20060;-59
2023/01/23 09:11:52;;;;;;;22.35;9.85;;;;;;;;;;5064294;28;20093;-59
2023/01/23 09:14:18;;;;;;;21.60;11.10;;;;;;;;;;5065278;28;20029;-58
2023/01/23 09:16:43;;;;;;;15.43;7.90;;;;;;;;;;5064694;28;20017;-58
2023/01/23 09:19:10;;;;;;;16.23;8.43;;;;;;;;;;5061587;28;20478;-58
2023/01/23 09:21:36;;;;;;;16.63;8.70;;;;;;;;;;5064451;28;20070;-59
2023/01/23 09:24:01;;;;;;;18.17;9.65;;;;;;;;;;5065451;28;20291;-59
2023/01/23 09:26:26;;;;;;;21.27;9.93;;;;;;;;;;5045698;28;20063;-61
2023/01/23 09:28:51;;;;;;;17.98;9.48;;;;;;;;;;5065227;28;20025;-60
2023/01/23 09:31:17;;;;;;;17.88;9.07;;;;;;;;;;5063302;28;20118;-59
2023/01/23 09:33:42;;;;;;;16.55;8.38;;;;;;;;;;5063508;28;20123;-59
2023/01/23 09:36:07;;;;;;;18.50;8.55;;;;;;;;;;5064785;28;20075;-59
2023/01/23 09:38:33;;;;;;;21.35;9.00;;;;;;;;;;5068288;28;20383;-59
2023/01/23 09:40:58;;;;;;;19.60;9.25;;;;;;;;;;5067261;28;20099;-59
2023/01/23 09:43:29;;;;;;;12.48;5.75;;;;;;;;;;5064313;28;20052;-59
2023/01/23 09:46:10;;;;;;;18.08;8.55;;;;;;;;;;5066238;28;20075;-59
2023/01/23 09:48:42;;;;;;;25.13;10.23;;;;;;;;;;5067008;28;20027;-59
2023/01/23 09:51:19;;;;;;;24.90;12.68;;;;;;;;;;5068403;28;20036;-60
2023/01/23 09:53:44;;;;;;;20.17;9.93;;;;;;;;;;5066762;28;20064;-59
2023/01/23 09:56:15;;;;;;;18.55;8.68;;;;;;;;;;5068018;28;20083;-58
2023/01/23 09:58:46;;;;;;;18.38;8.93;;;;;;;;;;5067405;28;20538;-59
2023/01/23 10:01:12;;;;;;;14.93;7.82;;;;;;;;;;5064803;28;20033;-59
2023/01/23 10:03:37;;;;;;;19.33;10.50;;;;;;;;;;5061399;28;20551;-60
2023/01/23 10:06:06;;;;;;;14.05;7.65;;;;;;;;;;5065621;28;20028;-59
2023/01/23 10:08:37;;;;;;;18.50;9.30;;;;;;;;;;5065582;28;20164;-60
2023/01/23 10:11:15;;;;;;;17.50;8.68;;;;;;;;;;5064671;28;20037;-59
2023/01/23 10:13:40;;;;;;;17.95;9.13;;;;;;;;;;5063571;28;20040;-59
2023/01/23 10:16:08;;;;;;;16.63;9.57;;;;;;;;;;5063761;28;20032;-60
2023/01/23 10:18:56;;;;;;;19.83;10.10;;;;;;;;;;5064110;28;20033;-60
2023/01/23 10:21:27;;;;;;;13.05;7.55;;;;;;;;;;5062947;28;20047;-59
2023/01/23 10:24:02;;;;;;;25.85;10.52;;;;;;;;;;5059366;28;20101;-59
2023/01/23 10:26:29;;;;;;;19.52;9.40;;;;;;;;;;5064828;28;20043;-59
2023/01/23 10:28:56;;;;;;;21.73;10.50;;;;;;;;;;5064970;28;20020;-59
2023/01/23 10:31:21;;;;;;;11.73;6.70;;;;;;;;;;5064927;28;20032;-59
2023/01/23 10:34:07;;;;;;;14.32;8.15;;;;;;;;;;5064963;28;20037;-61
2023/01/23 10:36:35;;;;;;;24.50;11.32;;;;;;;;;;5053655;28;20032;-59
2023/01/23 10:39:02;;;;;;;14.60;8.43;;;;;;;;;;5062653;28;20105;-59
2023/01/23 10:41:28;;;;;;;16.38;9.35;;;;;;;;;;5060098;28;20118;-59
2023/01/23 10:43:53;;;;;;;18.70;9.70;;;;;;;;;;5062447;28;20538;-59
2023/01/23 10:46:18;;;;;;;21.30;10.98;;;;;;;;;;5064778;28;20020;-59
2023/01/23 10:48:44;;;;;;;17.73;9.98;;;;;;;;;;5063442;28;20058;-59
2023/01/23 10:51:22;;;;;;;15.20;7.25;;;;;;;;;;5064756;28;20032;-59
2023/01/23 10:54:08;;;;;;;15.25;8.50;;;;;;;;;;5061361;28;20535;-59
2023/01/23 10:56:33;;;;;;;20.67;10.63;;;;;;;;;;5063540;28;20024;-62
2023/01/23 10:58:59;;;;;;;17.75;8.80;;;;;;;;;;5063312;28;20082;-59
2023/01/23 11:01:25;;;;;;;15.60;8.05;;;;;;;;;;5063512;28;20115;-59
2023/01/23 11:03:50;;;;;;;19.73;9.85;;;;;;;;;;5061656;28;20033;-59
2023/01/23 11:06:16;;;;;;;14.55;7.65;;;;;;;;;;5059359;28;20161;-59
2023/01/23 11:08:48;;;;;;;13.77;7.45;;;;;;;;;;5062504;28;20055;-59
2023/01/23 11:11:17;;;;;;;17.17;8.75;;;;;;;;;;5063323;28;20030;-61
2023/01/23 11:13:42;;;;;;;19.27;9.05;;;;;;;;;;5063118;28;20054;-59
2023/01/23 11:16:15;;;;;;;19.40;10.75;;;;;;;;;;5056704;28;20642;-59
2023/01/23 11:18:43;;;;;;;20.40;9.38;;;;;;;;;;5063891;28;20020;-59
2023/01/23 11:21:21;;;;;;;17.52;8.77;;;;;;;;;;5061834;28;20055;-59
2023/01/23 11:23:46;;;;;;;16.80;9.60;;;;;;;;;;5058937;28;20597;-58
2023/01/23 11:26:41;;;;;;;14.98;8.32;;;;;;;;;;5060695;28;20147;-59
2023/01/23 11:29:22;;;;;;;12.35;7.05;;;;;;;;;;5054156;28;20039;-59
2023/01/23 11:32:01;;;;;;;17.90;9.60;;;;;;;;;;5059996;28;20021;-59
2023/01/23 11:34:35;;;;;;;16.83;9.45;;;;;;;;;;5062023;28;20040;-59
2023/01/23 11:37:00;;;;;;;18.95;10.35;;;;;;;;;;5062450;28;20044;-59
2023/01/23 11:39:35;;;;;;;19.13;9.68;;;;;;;;;;5063772;28;20029;-59
2023/01/23 11:42:00;;;;;;;19.05;9.02;;;;;;;;;;5058515;28;20103;-59
2023/01/23 11:44:25;;;;;;;22.10;9.85;;;;;;;;;;5060110;28;20518;-58
2023/01/23 11:46:59;;;;;;;20.05;10.05;;;;;;;;;;5063196;28;20075;-59
2023/01/23 11:49:43;;;;;;;23.45;9.32;;;;;;;;;;5060064;28;20039;-58
2023/01/23 11:52:17;;;;;;;18.08;9.55;;;;;;;;;;5062469;28;20037;-59
2023/01/23 11:54:51;;;;;;;16.88;9.07;;;;;;;;;;5065966;28;20028;-58
2023/01/23 11:57:32;;;;;;;17.17;8.90;;;;;;;;;;5062177;28;20519;-59
2023/01/23 12:00:07;;;;;;;18.35;10.23;;;;;;;;;;5064230;28;20112;-59
2023/01/23 12:02:53;;;;;;;18.08;9.68;;;;;;;;;;5058647;28;20100;-58
2023/01/23 12:05:36;;;;;;;16.13;9.20;;;;;;;;;;5064191;28;20475;-59
2023/01/23 12:08:16;;;;;;;19.83;9.30;;;;;;;;;;5063804;28;20442;-58
2023/01/23 12:10:48;;;;;;;19.30;9.65;;;;;;;;;;5065593;28;20025;-59
2023/01/23 12:13:22;;;;;;;18.63;9.40;;;;;;;;;;5066017;28;20043;-58
2023/01/23 12:16:08;;;;;;;17.38;9.73;;;;;;;;;;5062796;28;20017;-59
2023/01/23 12:18:39;;;;;;;23.67;10.95;;;;;;;;;;5064152;28;20105;-58
2023/01/23 12:21:05;;;;;;;18.00;9.05;;;;;;;;;;5064545;28;20066;-59
2023/01/23 12:23:36;;;;;;;20.38;11.18;;;;;;;;;;5062230;28;20021;-59
2023/01/23 12:26:10;;;;;;;20.08;11.32;;;;;;;;;;5064062;28;20033;-59
2023/01/23 12:28:38;;;;;;;17.90;9.95;;;;;;;;;;5065632;28;20012;-59
2023/01/23 12:31:09;;;;;;;19.10;10.95;;;;;;;;;;5059267;28;20029;-59
2023/01/23 12:33:54;;;;;;;19.55;10.07;;;;;;;;;;5060239;28;20038;-59
2023/01/23 12:36:19;;;;;;;21.13;11.60;;;;;;;;;;5058717;28;20021;-60
2023/01/23 12:38:44;;;;;;;18.52;10.65;;;;;;;;;;5052355;28;20028;-59
2023/01/23 12:41:12;;;;;;;19.85;11.20;;;;;;;;;;5060434;28;20033;-60
2023/01/23 12:43:37;;;;;;;19.38;10.73;;;;;;;;;;5059092;28;20096;-60
2023/01/23 12:46:23;;;;;;;21.17;10.82;;;;;;;;;;5063572;28;20103;-60
2023/01/23 12:49:00;;;;;;;24.35;11.20;;;;;;;;;;5063208;28;20052;-60
2023/01/23 12:51:31;;;;;;;18.08;9.18;;;;;;;;;;5063296;28;20024;-59
2023/01/23 12:53:56;;;;;;;21.63;11.00;;;;;;;;;;5057167;28;20451;-60
2023/01/23 12:56:26;;;;;;;16.35;8.70;;;;;;;;;;5057850;28;20159;-59
2023/01/23 12:58:54;;;;;;;19.38;10.52;;;;;;;;;;5064097;28;20016;-60
2023/01/23 13:01:25;;;;;;;22.80;13.68;;;;;;;;;;5065436;28;20016;-60
2023/01/23 13:03:54;;;;;;;19.85;10.43;;;;;;;;;;5061406;28;20415;-60
2023/01/23 13:06:19;;;;;;;19.88;9.00;;;;;;;;;;5064463;28;20050;-60
2023/01/23 13:09:00;;;;;;;23.27;10.68;;;;;;;;;;5065263;28;20060;-60
2023/01/23 13:11:40;;;;;;;23.33;12.23;;;;;;;;;;5063335;28;20028;-60
2023/01/23 13:14:24;;;;;;;21.75;11.70;;;;;;;;;;5069294;28;20028;-60
2023/01/23 13:16:50;;;;;;;17.27;9.55;;;;;;;;;;5067914;28;20074;-60
2023/01/23 13:22:21;;;;;;;17.02;8.82;;;;;;;;;;5065670;28;20031;-60
2023/01/23 13:27:46;;;;;;;17.15;9.38;;;;;;;;;;5067248;28;20105;-60
2023/01/23 13:30:11;;;;;;;;;;;;;;;;;;5067184;28;20486;-60
2023/01/23 13:32:36;;;;;;;22.15;10.95;;;;;;;;;;5068222;28;19927;-60
2023/01/23 13:35:09;;;;;;;18.85;9.60;;;;;;;;;;5067509;28;20055;-60
2023/01/23 13:37:37;;;;;;;20.80;10.20;;;;;;;;;;5063353;28;20420;-60
2023/01/23 13:40:08;;;;;;;21.25;9.95;;;;;;;;;;5067291;28;20706;-60
2023/01/23 13:42:33;;;;;;;22.40;10.35;;;;;;;;;;5059413;28;20032;-60
2023/01/23 13:45:17;;;;;;;23.27;11.48;;;;;;;;;;5068681;28;20574;-60
2023/01/23 13:50:51;;;;;;;25.45;10.93;;;;;;;;;;5063826;28;20201;-60
2023/01/23 13:58:44;;;;;;;34.83;14.15;;;;;;;;;;5067558;28;20501;-59
2023/01/23 14:06:38;;;;;;;45.50;17.77;;;;;;;;;;5065545;28;20023;-59
2023/01/23 14:09:17;;;;;;;39.03;15.45;;;;;;;;;;5068308;28;20115;-60
2023/01/23 14:11:44;;;;;;;22.70;9.77;;;;;;;;;;5066884;28;20017;-59
2023/01/23 14:16:53;;;;;;;19.45;9.40;;;;;;;;;;5063909;28;20059;-60
2023/01/23 14:19:25;;;;;;;35.00;15.40;;;;;;;;;;5066574;28;20055;-60
2023/01/23 14:22:02;;;;;;;25.83;11.25;;;;;;;;;;5067679;28;20017;-59
2023/01/23 14:24:47;;;;;;;83.90;25.70;;;;;;;;;;5067463;28;20038;-60
2023/01/23 14:27:35;;;;;;;128.70;38.67;;;;;;;;;;5065566;28;20047;-59
2023/01/23 14:30:01;;;;;;;60.97;20.92;;;;;;;;;;5066583;28;20403;-59
2023/01/23 14:32:29;;;;;;;27.55;14.13;;;;;;;;;;5067317;28;20359;-59
2023/01/23 14:34:54;;;;;;;19.40;10.73;;;;;;;;;;5067458;28;20059;-59
2023/01/23 14:37:19;;;;;;;15.52;8.60;;;;;;;;;;5062183;28;20336;-59
2023/01/23 14:39:46;;;;;;;21.00;10.55;;;;;;;;;;5066228;28;20162;-60
2023/01/23 14:42:39;;;;;;;18.90;9.45;;;;;;;;;;5063185;28;20032;-60
2023/01/23 14:45:04;;;;;;;15.93;9.55;;;;;;;;;;5065225;28;20063;-59
2023/01/23 14:47:33;;;;;;;18.50;9.57;;;;;;;;;;5066025;28;20459;-60
2023/01/23 14:49:59;;;;;;;22.35;9.20;;;;;;;;;;5059574;28;20028;-59
2023/01/23 14:52:25;;;;;;;16.38;8.27;;;;;;;;;;5064594;28;20090;-59